Reklama

Seznam meteostanic a jejich METAR

Vyhledat místa podle abecedy:
A B C D E F G H I J K L M N O P Q R S T U V W X Y Z

Filtrovat:

ID stanice:
a/nebo
Název místa (fulltext):
 
Místo (ID)Naposledy načteno 
Temelín (Temelin) 31.05.2020 04:00 UTC Zobrazit data
Místo: Temelín
Teplota: 7 °C (pocitová: 1.2 °C)
Vítr: 4 m/s z(e) 320°
Počasí: skorojasno
Dohlednost: 35 km
Zákl. oblačnosti: 1/8 3900 m
Vlhkost: 76%
Tahiti (NTAA) 31.05.2020 04:00 UTC Zobrazit METAR
NTAA 310400Z 04006KT 9999 FEW020 28/23 Q1017 NOSIG
Taipei (RCTP) 31.05.2020 04:00 UTC Zobrazit METAR
RCTP 310400Z 25021KT 9999 FEW020 SCT100 32/26 Q1011 NOSIG RMK A2986
Taipei (RCSS) 31.05.2020 04:00 UTC Zobrazit METAR
RCSS 310400Z 28017KT 250V310 9999 FEW025 SCT040 BKN200 34/26 Q1010 NOSIG RMK 27015KT/R10 A2984
Tallinn (EETN) 31.05.2020 03:50 UTC Zobrazit METAR
EETN 310350Z 05011KT 020V080 CAVOK 13/06 Q1026 NOSIG
Tampere (EFTP) 31.05.2020 03:50 UTC Zobrazit METAR
EFTP 310350Z AUTO 02005KT 340V060 CAVOK 11/04 Q1030
Tarawa I (NGTA) 31.05.2020 04:00 UTC Zobrazit METAR
NGTA 310400Z 09007KT 9999 FEW019 BKN040 31/24 Q1011
Targu Mures (LRTM) 31.05.2020 04:00 UTC Zobrazit METAR
LRTM 310400Z AUTO 24003KT 9999 OVC078/// 09/08 Q1011
Tartu (EETU) 30.05.2020 14:50 UTC Zobrazit METAR
EETU 301450Z 02014G25KT 350V060 CAVOK 18/05 Q1020
Tashkent (UTTT) 31.05.2020 04:00 UTC Zobrazit METAR
UTTT 310400Z 19004KT 160V220 CAVOK 29/12 Q1010 R08R/CLRD70 NOSIG
Tbilisi (UGGG) Zatím nenačteno  
Tegucigalpa (MHTG) 30.05.2020 15:00 UTC Zobrazit METAR
MHTG 301500Z 18008KT 8000 FEW008 SCT026 BKN080 23/23 Q1018 A3006
Tehran (OIII) 31.05.2020 04:00 UTC Zobrazit METAR
OIII 310400Z 20004KT CAVOK 30/01 Q1015 A2999 NOSIG
Tel Aviv (LLBG) 31.05.2020 03:50 UTC Zobrazit METAR
LLBG 310350Z VRB02KT 9999 FEW034 18/12 Q1017 NOSIG
Tenerife (GCTS) 31.05.2020 04:00 UTC Zobrazit METAR
GCTS 310400Z VRB02KT 9999 FEW020 BKN052 21/18 Q1013 NOSIG
Thessaloniki (LGTS) 31.05.2020 03:50 UTC Zobrazit METAR
LGTS 310350Z VRB02KT 9999 FEW030 13/11 Q1013 NOSIG
Thule (BGTL) 31.05.2020 03:56 UTC Zobrazit METAR
BGTL 310356Z AUTO 00000KT 9999 OVC004 M03/M03 A2985 RMK AO2 CIG 002 RWY26 SLP095 T10331033 410301047 TSNO $
Timisoara (LRTR) 31.05.2020 04:00 UTC Zobrazit METAR
LRTR 310400Z 16003KT CAVOK 07/07 Q1013
Tirana (LATI) 31.05.2020 03:50 UTC Zobrazit METAR
LATI 310350Z 16003KT 9999 SCT055 OVC070 14/13 Q1015 NOSIG
Tokyo (RJTT) 31.05.2020 03:00 UTC Zobrazit METAR
RJTT 310300Z 19009KT 9999 FEW030 BKN140 24/16 Q1019 NOSIG
Torp (ENTO) 31.05.2020 03:50 UTC Zobrazit METAR
ENTO 310350Z 01004KT CAVOK 10/07 Q1032
Toulouse (LFBO) 31.05.2020 04:00 UTC Zobrazit METAR
LFBO 310400Z AUTO 14005KT CAVOK 16/13 Q1013 NOSIG
Tripoli (HLLT) 13.07.2014 03:50 UTC Zobrazit METAR
HLLT 130350Z 11009KT CAVOK 24/15 Q1015
Trondheim (ENVA) 31.05.2020 03:50 UTC Zobrazit METAR
ENVA 310350Z 11009KT CAVOK 10/06 Q1034 RMK WIND 670FT 13012KT
Tunis (DTTA) 31.05.2020 04:00 UTC Zobrazit METAR
DTTA 310400Z 29004KT 260V320 9999 FEW026 18/15 Q1015
Turku (EFTU) 31.05.2020 03:50 UTC Zobrazit METAR
EFTU 310350Z AUTO 05006KT 360V080 CAVOK 12/04 Q1029
Reklama

Lunární kalendář

  • 05.06.Fáze měsíce uplnek
  • 13.06.Fáze měsíce posl_ctvrt
  • 21.06.Fáze měsíce nov
  • 28.06.Fáze měsíce prv_ctvrt



Reklama
Meteodomečky

Počasí na Váš email

Emaily jsou bez reklamy a bez spamu



Odhlásit newsletter

Reklama


Další české internetové stránky (nejen) o počasí najdete v katalogu TOPlist - weby o počasí nebo vyhledejte na internetu, co jste tu na 🌞 Slunečnu ⛅ zatím nenašli:

Reklama